Charlo, Montana
Current Conditions -  °F | °C
As of 4:53 PM on Sunday 23 Nov 2014 (Local Time) from KMSO Reporting Station
Broken Clouds Broken Clouds  
Wind Chill: 32°   Ceiling: 6000
Heat Index: 39°   Visibility: 10mi
Dew Point: 28°   Wind: 10mph
Humidity: 65%   Direction: 190°S
Pressure: 29.97"   Gusts: NA
Location:  47.44°N, 114.17°W
Report Text: KMSO 232353Z 19009KT 10SM SCT048 BKN060 BKN090 04/M02 A2997 RMK AO2 SLP168 T00391022 10039 20022 56022
Loading
Personal Weather Stations






























Interactive Weather Map New forecast layout! Learn more

10-Day Weather Forecast

Advertisements
Track Severe Weather on mobile